Yoshu Maru No.5 — JG5510 — position and weather

sailwx.info

Track history (hours):
 
Tides and Currents Weather Stations Pressure Air Temp Water Temp Dewpoint Dewpoint Depression Visibility Wind Speed Wind Dir Waves Ship Positions

Yoshu Maru No.5

Last reported at 2017-Nov-15 06:38 UTC. Time now 2017-Nov-18 03:05 UTC.
Position N 34°54' E 139°26'.

Length 110 m; draft 5.3 m.

Type: Cargo ship. MMSI: 431400833.

Date/timePositionNaut miles runAvg speedWind from/ knotsBaromVisibWave heightAir tempDewpointWater temp
2017-Nov-15 06:38N 34°54' E 139°26'213.7
2017-Nov-15 06:29N 34°56' E 139°28'613.5
2017-Nov-15 06:00N 35°01' E 139°33'713.1
2017-Nov-15 05:30N 35°05' E 139°39'713.5
2017-Nov-15 05:00N 35°10' E 139°45'612.2
2017-Nov-15 04:30N 35°16' E 139°45'612.8
2017-Nov-15 04:00N 35°22' E 139°42'713.8
2017-Nov-15 03:30N 35°28' E 139°47'3 5.6
2017-Nov-15 03:00N 35°30' E 139°44'0 0.0
2017-Nov-15 02:27N 35°30' E 139°44'0 0.0
2017-Nov-15 02:00N 35°30' E 139°44'0 0.0
2017-Nov-15 01:30N 35°30' E 139°44'0 0.0
2017-Nov-15 01:00N 35°30' E 139°44'0 0.0
2017-Nov-15 00:30N 35°30' E 139°44'0 0.0
2017-Nov-15 00:00N 35°30' E 139°44'0 0.0
2017-Nov-14 23:27N 35°30' E 139°44'0 0.1
2017-Nov-14 23:00N 35°30' E 139°44'2 4.9
2017-Nov-14 22:30N 35°28' E 139°42'4 7.3
2017-Nov-14 22:00N 35°28' E 139°47'713.3
2017-Nov-14 21:30N 35°30' E 139°55'4 1.2
2017-Nov-14 18:15N 35°27' E 139°58'0 0.0
2017-Nov-13 23:35N 35°27' E 139°58'0 0.0
2017-Nov-13 23:30N 35°27' E 139°58'2 3.6
2017-Nov-13 22:58N 35°29' E 139°57'  
Track history (hours):
 
Tides and Currents Weather Stations Pressure Air Temp Water Temp Dewpoint Dewpoint Depression Visibility Wind Speed Wind Dir Waves Ship Positions

Yoshu Maru No.5

Last reported at 2017-Nov-15 06:38 UTC. Time now 2017-Nov-18 03:05 UTC.
Position N 34°54' E 139°26'.

Length 110 m; draft 5.3 m.

Type: Cargo ship. MMSI: 431400833.

Date/timePositionNaut miles runAvg speedWind from/ knotsBaromVisibWave heightAir tempDewpointWater temp
2017-Nov-15 06:38N 34°54' E 139°26'213.7
2017-Nov-15 06:29N 34°56' E 139°28'613.5
2017-Nov-15 06:00N 35°01' E 139°33'713.1
2017-Nov-15 05:30N 35°05' E 139°39'713.5
2017-Nov-15 05:00N 35°10' E 139°45'612.2
2017-Nov-15 04:30N 35°16' E 139°45'612.8
2017-Nov-15 04:00N 35°22' E 139°42'713.8
2017-Nov-15 03:30N 35°28' E 139°47'3 5.6
2017-Nov-15 03:00N 35°30' E 139°44'0 0.0
2017-Nov-15 02:27N 35°30' E 139°44'0 0.0
2017-Nov-15 02:00N 35°30' E 139°44'0 0.0
2017-Nov-15 01:30N 35°30' E 139°44'0 0.0
2017-Nov-15 01:00N 35°30' E 139°44'0 0.0
2017-Nov-15 00:30N 35°30' E 139°44'0 0.0
2017-Nov-15 00:00N 35°30' E 139°44'0 0.0
2017-Nov-14 23:27N 35°30' E 139°44'0 0.1
2017-Nov-14 23:00N 35°30' E 139°44'2 4.9
2017-Nov-14 22:30N 35°28' E 139°42'4 7.3
2017-Nov-14 22:00N 35°28' E 139°47'713.3
2017-Nov-14 21:30N 35°30' E 139°55'4 1.2
2017-Nov-14 18:15N 35°27' E 139°58'0 0.0
2017-Nov-13 23:35N 35°27' E 139°58'0 0.0
2017-Nov-13 23:30N 35°27' E 139°58'2 3.6
2017-Nov-13 22:58N 35°29' E 139°57'  

Dump ship's entire track history